createdAt,value
2023-08-30T00:02:06.741Z,42.24
2023-08-30T00:04:35.992Z,41.86
2023-08-30T00:07:03.945Z,41.93
2023-08-30T00:09:31.738Z,41.87
2023-08-30T00:11:59.585Z,42.28
2023-08-30T00:14:27.383Z,41.96
2023-08-30T00:16:55.311Z,42.48
2023-08-30T00:19:22.176Z,42.49
2023-08-30T00:21:51.333Z,42.32
2023-08-30T00:24:19.083Z,42.63
2023-08-30T00:26:47.033Z,42.15
2023-08-30T00:29:15.770Z,42.29
2023-08-30T00:31:43.605Z,42.63
2023-08-30T00:34:11.517Z,42.47
2023-08-30T00:36:39.596Z,42.84
2023-08-30T00:39:09.798Z,42.82
2023-08-30T00:41:37.656Z,42.35
2023-08-30T00:44:06.280Z,42.69
2023-08-30T00:46:35.457Z,42.33
2023-08-30T00:49:03.774Z,42.50
2023-08-30T00:51:33.063Z,43.15
2023-08-30T00:54:02.051Z,42.83
2023-08-30T00:56:32.038Z,42.93
2023-08-30T00:59:00.047Z,43.16
2023-08-30T01:01:28.273Z,42.85
2023-08-30T01:03:56.140Z,43.30
2023-08-30T01:06:24.046Z,43.03
2023-08-30T01:08:52.665Z,43.05
2023-08-30T01:11:27.985Z,43.40
2023-08-30T01:14:01.545Z,43.12
2023-08-30T01:16:29.700Z,43.23
2023-08-30T01:18:58.813Z,43.10
2023-08-30T01:21:38.017Z,43.46
2023-08-30T01:24:09.438Z,43.28
2023-08-30T01:26:45.786Z,43.16
2023-08-30T01:29:17.797Z,43.34
2023-08-30T01:31:47.873Z,43.32
2023-08-30T01:34:17.663Z,43.39
2023-08-30T01:36:46.212Z,43.05
2023-08-30T01:39:16.126Z,42.95
2023-08-30T01:41:45.305Z,42.91
2023-08-30T01:44:17.916Z,43.14
2023-08-30T01:46:46.963Z,44.25
2023-08-30T01:49:15.223Z,42.92
2023-08-30T01:51:43.319Z,43.19
2023-08-30T01:54:15.979Z,43.06
2023-08-30T01:56:43.630Z,43.98
2023-08-30T01:59:11.441Z,43.08
2023-08-30T02:01:40.742Z,43.37
2023-08-30T02:04:08.870Z,43.22
2023-08-30T02:06:44.338Z,43.38
2023-08-30T02:09:20.103Z,43.94
2023-08-30T02:11:51.002Z,43.42
2023-08-30T02:14:20.316Z,43.15
2023-08-30T02:16:50.657Z,43.25
2023-08-30T02:19:22.047Z,43.23
2023-08-30T02:21:50.250Z,43.10
2023-08-30T02:24:19.917Z,43.32
2023-08-30T02:26:47.796Z,43.26
2023-08-30T02:29:16.127Z,43.53
2023-08-30T02:31:43.982Z,43.49
2023-08-30T02:34:13.192Z,43.64
2023-08-30T02:36:41.253Z,43.23
2023-08-30T02:39:09.431Z,43.26
2023-08-30T02:41:37.300Z,43.83
2023-08-30T02:44:05.268Z,43.40
2023-08-30T02:46:33.134Z,43.93
2023-08-30T02:49:01.056Z,43.80
2023-08-30T02:51:30.357Z,43.47
2023-08-30T02:53:58.121Z,43.62
2023-08-30T02:56:26.356Z,43.74
2023-08-30T02:58:54.174Z,43.62
2023-08-30T03:01:22.096Z,43.96
2023-08-30T03:03:50.990Z,44.26
2023-08-30T03:06:20.390Z,43.71
2023-08-30T03:08:49.675Z,44.42
2023-08-30T03:11:17.589Z,43.81
2023-08-30T03:13:51.657Z,44.29
2023-08-30T03:16:19.775Z,44.02
2023-08-30T03:18:48.441Z,43.87
2023-08-30T03:21:16.632Z,44.19
2023-08-30T03:23:44.464Z,43.83
2023-08-30T03:26:15.324Z,44.31
2023-08-30T03:28:44.046Z,44.10
2023-08-30T03:31:17.176Z,44.21
2023-08-30T03:33:46.678Z,44.23
2023-08-30T03:36:17.123Z,44.39
2023-08-30T03:38:45.819Z,43.81
2023-08-30T03:41:16.297Z,44.14
2023-08-30T03:43:46.034Z,44.14
2023-08-30T03:46:13.972Z,43.86
2023-08-30T03:48:41.860Z,44.41
2023-08-30T03:51:09.875Z,43.77
2023-08-30T03:53:37.716Z,44.06
2023-08-30T03:56:06.540Z,44.28
2023-08-30T03:58:35.835Z,44.10
2023-08-30T04:01:03.716Z,44.14
2023-08-30T04:03:31.828Z,44.02
2023-08-30T04:06:00.269Z,44.51
2023-08-30T04:08:28.204Z,44.72
2023-08-30T04:10:57.020Z,44.23
2023-08-30T04:13:25.413Z,44.89
2023-08-30T04:15:58.242Z,44.89
2023-08-30T04:18:26.579Z,44.33
2023-08-30T04:20:54.753Z,44.33
2023-08-30T04:23:22.694Z,44.58
2023-08-30T04:25:51.901Z,44.31
2023-08-30T04:28:19.798Z,44.88
2023-08-30T04:30:47.764Z,44.40
2023-08-30T04:33:17.106Z,44.68
2023-08-30T04:35:44.923Z,44.46
2023-08-30T04:38:13.771Z,44.59
2023-08-30T04:40:41.744Z,45.15
2023-08-30T04:43:23.564Z,44.66
2023-08-30T04:45:51.862Z,45.18
2023-08-30T04:48:21.287Z,44.80
2023-08-30T04:50:49.471Z,45.14
2023-08-30T04:53:17.318Z,45.31
2023-08-30T04:55:45.181Z,44.90
2023-08-30T04:58:13.090Z,44.92
2023-08-30T05:00:41.185Z,44.95
2023-08-30T05:03:09.392Z,45.17
2023-08-30T05:05:38.958Z,45.57
2023-08-30T05:08:07.805Z,45.26
2023-08-30T05:10:35.935Z,45.72
2023-08-30T05:13:05.188Z,45.38
2023-08-30T05:15:33.717Z,45.59
2023-08-30T05:18:02.367Z,45.66
2023-08-30T05:20:31.052Z,45.73
2023-08-30T05:23:00.366Z,45.88
2023-08-30T05:25:28.581Z,45.73
2023-08-30T05:27:57.069Z,45.95
2023-08-30T05:30:25.016Z,46.03
2023-08-30T05:32:55.232Z,45.56
2023-08-30T05:35:41.769Z,45.46
2023-08-30T05:38:44.366Z,45.67
2023-08-30T05:41:34.016Z,45.61
2023-08-30T05:44:02.020Z,45.68
2023-08-30T05:46:30.199Z,46.15
2023-08-30T05:48:58.437Z,45.66
2023-08-30T05:51:26.236Z,46.29
2023-08-30T05:53:55.517Z,45.67
2023-08-30T05:56:23.615Z,46.38
2023-08-30T05:58:52.491Z,45.84
2023-08-30T06:01:21.197Z,45.83
2023-08-30T06:03:49.182Z,46.10
2023-08-30T06:06:17.945Z,45.88
2023-08-30T06:08:45.845Z,46.17
2023-08-30T06:11:15.167Z,46.09
2023-08-30T06:13:43.151Z,46.12
2023-08-30T06:16:11.021Z,46.14
2023-08-30T06:18:39.432Z,46.40
2023-08-30T06:21:07.250Z,46.73
2023-08-30T06:23:35.495Z,46.65
2023-08-30T06:26:04.201Z,46.73
2023-08-30T06:28:33.446Z,46.41
2023-08-30T06:31:01.343Z,47.00
2023-08-30T06:33:29.269Z,46.82
2023-08-30T06:35:57.429Z,46.66
2023-08-30T06:38:25.206Z,46.92
2023-08-30T06:40:53.068Z,46.61
2023-08-30T06:43:20.901Z,46.71
2023-08-30T06:45:50.132Z,46.62
2023-08-30T06:48:18.390Z,46.71
2023-08-30T06:50:46.270Z,46.84
2023-08-30T06:53:14.242Z,46.65
2023-08-30T06:55:42.060Z,46.80
2023-08-30T06:58:10.173Z,46.99
2023-08-30T07:00:38.134Z,46.90
2023-08-30T07:03:07.673Z,46.98
2023-08-30T07:05:35.504Z,47.04
2023-08-30T07:08:03.815Z,47.11
2023-08-30T07:10:31.652Z,46.76
2023-08-30T07:12:59.503Z,46.86
2023-08-30T07:15:27.338Z,46.69
2023-08-30T07:17:56.761Z,47.13
2023-08-30T07:20:27.306Z,46.92
2023-08-30T07:22:55.171Z,46.22
2023-08-30T07:25:23.058Z,46.19
2023-08-30T07:27:50.821Z,46.48
2023-08-30T07:30:19.056Z,46.33
2023-08-30T07:32:46.841Z,46.21
2023-08-30T07:35:15.489Z,45.88
2023-08-30T07:37:45.016Z,46.08
2023-08-30T07:40:13.606Z,45.65
2023-08-30T07:42:41.646Z,45.54
2023-08-30T07:45:10.848Z,45.86
2023-08-30T07:47:38.637Z,45.49
2023-08-30T07:50:08.293Z,45.32
2023-08-30T07:52:45.474Z,45.37
2023-08-30T07:55:17.315Z,44.70
2023-08-30T07:57:45.250Z,44.80
2023-08-30T08:00:14.211Z,44.50
2023-08-30T08:02:44.736Z,44.46
2023-08-30T08:05:12.706Z,44.23
2023-08-30T08:07:41.507Z,44.16
2023-08-30T08:10:10.587Z,43.82
2023-08-30T08:12:40.082Z,43.44
2023-08-30T08:15:08.748Z,42.95
2023-08-30T08:17:36.618Z,42.35
2023-08-30T08:20:06.597Z,42.49
2023-08-30T08:22:34.520Z,41.84
2023-08-30T08:25:02.443Z,41.95
2023-08-30T08:27:31.545Z,41.97
2023-08-30T08:30:00.934Z,41.36
2023-08-30T08:32:28.840Z,41.17
2023-08-30T08:34:56.804Z,41.43
2023-08-30T08:37:24.740Z,41.45
2023-08-30T08:39:52.697Z,40.94
2023-08-30T08:42:21.758Z,40.91
2023-08-30T08:44:51.767Z,40.99
2023-08-30T08:47:21.898Z,40.83
2023-08-30T08:49:50.559Z,40.81
2023-08-30T08:52:29.289Z,40.81
2023-08-30T08:55:01.466Z,41.38
2023-08-30T08:57:32.787Z,40.72
2023-08-30T09:00:00.867Z,41.03
2023-08-30T09:02:30.763Z,41.18
2023-08-30T09:04:59.647Z,41.09
2023-08-30T09:07:29.245Z,40.86
2023-08-30T09:09:57.232Z,40.55
2023-08-30T09:12:25.211Z,40.59
2023-08-30T09:14:57.441Z,39.85
2023-08-30T09:17:25.971Z,40.35
2023-08-30T09:19:55.122Z,39.99
2023-08-30T09:22:23.205Z,40.35
2023-08-30T09:24:51.023Z,40.25
2023-08-30T09:27:20.446Z,40.05
2023-08-30T09:29:48.356Z,39.65
2023-08-30T09:32:23.100Z,39.28
2023-08-30T09:34:50.994Z,39.75
2023-08-30T09:37:23.552Z,39.17
2023-08-30T09:39:51.842Z,40.01
2023-08-30T09:42:20.279Z,40.06
2023-08-30T09:44:48.854Z,40.00
2023-08-30T09:47:17.295Z,40.05
2023-08-30T09:49:46.790Z,39.78
2023-08-30T09:52:19.984Z,40.02
2023-08-30T09:54:49.451Z,40.07
2023-08-30T09:57:18.185Z,39.65
2023-08-30T09:59:47.770Z,39.83
2023-08-30T10:02:15.941Z,40.08
2023-08-30T10:04:46.328Z,39.65
2023-08-30T10:07:14.617Z,39.91
2023-08-30T10:09:59.078Z,39.93
2023-08-30T10:12:33.678Z,39.62
2023-08-30T10:15:02.679Z,39.60
2023-08-30T10:17:35.275Z,39.85
2023-08-30T10:20:07.740Z,39.97
2023-08-30T10:22:39.185Z,39.67
2023-08-30T10:25:12.414Z,39.92
2023-08-30T10:27:45.302Z,40.10
2023-08-30T10:30:14.505Z,40.43
2023-08-30T10:32:43.074Z,40.55
2023-08-30T10:35:13.450Z,40.09
2023-08-30T10:37:41.778Z,40.44
2023-08-30T10:40:11.051Z,40.29
2023-08-30T10:42:38.892Z,40.61
2023-08-30T10:45:20.107Z,40.39
2023-08-30T10:47:48.362Z,40.82
2023-08-30T10:50:16.373Z,40.74
2023-08-30T10:52:44.305Z,41.18
2023-08-30T10:55:14.038Z,41.54
2023-08-30T10:57:44.594Z,41.48
2023-08-30T11:00:21.333Z,42.50
2023-08-30T11:02:51.536Z,42.20
2023-08-30T11:05:21.457Z,42.46
2023-08-30T11:07:50.105Z,42.81
2023-08-30T11:10:18.277Z,42.47
2023-08-30T11:12:46.997Z,42.84
2023-08-30T11:15:16.316Z,43.76
2023-08-30T11:17:45.000Z,43.39
2023-08-30T11:20:14.081Z,43.59
2023-08-30T11:22:44.110Z,44.06
2023-08-30T11:25:13.283Z,44.92
2023-08-30T11:27:41.598Z,44.75
2023-08-30T11:30:11.234Z,45.12
2023-08-30T11:32:43.956Z,45.58
2023-08-30T11:35:12.616Z,46.00
2023-08-30T11:37:42.286Z,46.19
2023-08-30T11:40:13.569Z,46.25
2023-08-30T11:42:41.927Z,46.28
2023-08-30T11:45:11.228Z,46.25
2023-08-30T11:47:42.235Z,46.49
2023-08-30T11:50:13.405Z,46.48
2023-08-30T11:52:41.521Z,46.73
2023-08-30T11:55:09.981Z,46.92
2023-08-30T11:57:38.266Z,46.97
2023-08-30T12:00:11.224Z,47.50
2023-08-30T12:02:41.957Z,47.40
2023-08-30T12:05:13.678Z,47.97
2023-08-30T12:07:42.472Z,47.53
2023-08-30T12:10:12.203Z,47.23
2023-08-30T12:12:40.380Z,47.65
2023-08-30T12:15:12.269Z,48.69
2023-08-30T12:17:42.057Z,47.83
2023-08-30T12:20:17.431Z,48.29
2023-08-30T12:22:45.614Z,47.30
2023-08-30T12:25:20.921Z,48.80
2023-08-30T12:27:49.220Z,47.66
2023-08-30T12:30:18.063Z,47.78
2023-08-30T12:32:48.227Z,48.17
2023-08-30T12:35:16.486Z,48.65
2023-08-30T12:37:44.519Z,48.60
2023-08-30T12:40:13.405Z,48.46
2023-08-30T12:42:41.446Z,48.56
2023-08-30T12:45:11.478Z,48.81
2023-08-30T12:47:39.452Z,49.10
2023-08-30T12:50:10.618Z,48.99
2023-08-30T12:52:38.544Z,48.69
2023-08-30T12:55:07.157Z,48.67
2023-08-30T12:57:35.072Z,48.84
2023-08-30T13:00:04.160Z,48.69
2023-08-30T13:02:32.040Z,48.67
2023-08-30T13:05:00.143Z,49.21
2023-08-30T13:07:29.372Z,49.11
2023-08-30T13:09:57.336Z,48.75
2023-08-30T13:12:26.202Z,49.17
2023-08-30T13:14:54.039Z,49.47
2023-08-30T13:17:21.923Z,49.37
2023-08-30T13:19:50.429Z,49.63
2023-08-30T13:22:18.912Z,49.55
2023-08-30T13:24:48.626Z,50.10
2023-08-30T13:27:16.648Z,49.77
2023-08-30T13:29:44.503Z,49.81
2023-08-30T13:32:12.585Z,50.18
2023-08-30T13:34:40.888Z,49.88
2023-08-30T13:37:08.712Z,49.61
2023-08-30T13:39:36.559Z,49.58
2023-08-30T13:42:06.229Z,50.17
2023-08-30T13:44:34.358Z,50.37
2023-08-30T13:47:02.490Z,50.09
2023-08-30T13:49:31.026Z,50.11
2023-08-30T13:51:59.232Z,50.19
2023-08-30T13:54:30.020Z,50.13
2023-08-30T13:56:59.734Z,49.96
2023-08-30T13:59:31.528Z,50.03
2023-08-30T14:01:59.629Z,49.89
2023-08-30T14:04:27.719Z,50.02
2023-08-30T14:06:55.556Z,50.06
2023-08-30T14:09:23.434Z,50.13
2023-08-30T14:11:51.702Z,50.58
2023-08-30T14:14:19.539Z,50.74
2023-08-30T14:16:48.755Z,50.67
2023-08-30T14:19:18.508Z,50.29
2023-08-30T14:21:46.861Z,50.54
2023-08-30T14:24:14.813Z,50.69
2023-08-30T14:26:42.851Z,50.62
2023-08-30T14:29:10.646Z,50.44
2023-08-30T14:31:38.672Z,50.35
2023-08-30T14:34:09.344Z,50.30
2023-08-30T14:36:37.310Z,50.67
2023-08-30T14:39:05.405Z,50.09
2023-08-30T14:41:33.975Z,50.25
2023-08-30T14:44:01.854Z,50.38
2023-08-30T14:46:30.394Z,50.64
2023-08-30T14:48:58.327Z,50.79
2023-08-30T14:51:27.721Z,50.48
2023-08-30T14:53:55.912Z,50.34
2023-08-30T14:56:24.015Z,50.55
2023-08-30T14:58:52.906Z,50.10
2023-08-30T15:01:21.854Z,50.39
2023-08-30T15:03:49.864Z,50.23
2023-08-30T15:06:17.807Z,50.20
2023-08-30T15:08:47.077Z,50.73
2023-08-30T15:11:15.051Z,50.46
2023-08-30T15:13:43.199Z,50.77
2023-08-30T15:16:11.236Z,50.72
2023-08-30T15:18:39.084Z,50.83
2023-08-30T15:21:07.891Z,51.24
2023-08-30T15:23:38.636Z,51.48
2023-08-30T15:26:09.028Z,51.52
2023-08-30T15:28:36.920Z,51.26
2023-08-30T15:31:04.799Z,51.58
2023-08-30T15:33:32.854Z,51.15
2023-08-30T15:36:00.785Z,51.19
2023-08-30T15:38:28.736Z,50.96
2023-08-30T15:40:57.014Z,51.30
2023-08-30T15:43:27.173Z,51.35
2023-08-30T15:45:55.600Z,50.75
2023-08-30T15:48:23.749Z,50.95
2023-08-30T15:50:51.721Z,50.82
2023-08-30T15:53:19.683Z,51.02
2023-08-30T15:55:47.631Z,50.67
2023-08-30T15:58:16.272Z,50.47
2023-08-30T16:00:45.681Z,50.52
2023-08-30T16:03:13.685Z,50.13
2023-08-30T16:05:41.724Z,50.63
2023-08-30T16:08:10.323Z,50.14
2023-08-30T16:10:38.677Z,49.89
2023-08-30T16:13:06.644Z,50.36
2023-08-30T16:15:34.592Z,50.45
2023-08-30T16:18:04.081Z,50.45
2023-08-30T16:20:33.306Z,50.02
2023-08-30T16:23:01.429Z,50.19
2023-08-30T16:25:29.290Z,49.63
2023-08-30T16:27:57.346Z,50.11
2023-08-30T16:30:26.955Z,49.85
2023-08-30T16:32:55.321Z,49.66
2023-08-30T16:35:25.961Z,49.84
2023-08-30T16:37:54.016Z,49.63
2023-08-30T16:40:22.124Z,49.94
2023-08-30T16:42:50.567Z,49.92
2023-08-30T16:45:18.709Z,49.80
2023-08-30T16:48:04.358Z,49.92
2023-08-30T16:50:36.297Z,49.86
2023-08-30T16:53:06.842Z,50.14
2023-08-30T16:55:34.755Z,49.91
2023-08-30T16:58:02.650Z,50.25
2023-08-30T17:00:30.715Z,50.03
2023-08-30T17:02:58.628Z,50.04
2023-08-30T17:05:26.757Z,49.92
2023-08-30T17:07:56.276Z,50.19
2023-08-30T17:10:25.081Z,50.34
2023-08-30T17:12:57.805Z,49.71
2023-08-30T17:15:26.215Z,50.07
2023-08-30T17:17:54.843Z,50.14
2023-08-30T17:20:22.812Z,50.06
2023-08-30T17:22:51.692Z,49.72
2023-08-30T17:25:20.960Z,50.02
2023-08-30T17:27:48.978Z,49.82
2023-08-30T17:30:17.485Z,49.71
2023-08-30T17:32:45.436Z,49.47
2023-08-30T17:35:13.902Z,49.25
2023-08-30T17:37:42.623Z,49.45
2023-08-30T17:40:12.114Z,48.83
2023-08-30T17:42:41.404Z,49.06
2023-08-30T17:45:21.444Z,48.86
2023-08-30T17:47:49.701Z,48.70
2023-08-30T17:50:17.872Z,48.24
2023-08-30T17:52:45.793Z,48.25
2023-08-30T17:55:16.056Z,48.22
2023-08-30T17:57:45.688Z,48.60
2023-08-30T18:00:15.225Z,48.04
2023-08-30T18:02:43.328Z,47.71
2023-08-30T18:05:11.185Z,47.92
2023-08-30T18:07:39.183Z,47.93
2023-08-30T18:10:08.361Z,47.63
2023-08-30T18:12:36.319Z,47.70
2023-08-30T18:15:06.387Z,47.57
2023-08-30T18:17:35.932Z,47.16
2023-08-30T18:20:07.433Z,47.06
2023-08-30T18:22:35.387Z,46.99
2023-08-30T18:25:05.448Z,47.17
2023-08-30T18:27:33.518Z,46.77
2023-08-30T18:30:01.495Z,47.15
2023-08-30T18:32:30.874Z,47.30
2023-08-30T18:34:58.744Z,46.81
2023-08-30T18:37:27.190Z,46.59
2023-08-30T18:40:16.965Z,46.07
2023-08-30T18:42:44.901Z,46.41
2023-08-30T18:45:12.790Z,46.54
2023-08-30T18:47:42.213Z,46.48
2023-08-30T18:50:13.153Z,46.45
2023-08-30T18:52:41.065Z,47.08
2023-08-30T18:55:09.742Z,47.14
2023-08-30T18:57:37.727Z,47.04
2023-08-30T19:00:11.239Z,47.02
2023-08-30T19:02:39.442Z,46.86
2023-08-30T19:05:09.934Z,46.99
2023-08-30T19:07:37.866Z,46.92
2023-08-30T19:10:07.929Z,46.84
2023-08-30T19:12:35.987Z,47.00
2023-08-30T19:15:04.579Z,46.73
2023-08-30T19:17:32.627Z,46.92
2023-08-30T19:20:00.545Z,47.05
2023-08-30T19:22:30.049Z,46.69
2023-08-30T19:24:58.023Z,47.07
2023-08-30T19:27:27.105Z,46.33
2023-08-30T19:29:54.990Z,46.94
2023-08-30T19:32:22.940Z,47.17
2023-08-30T19:34:51.100Z,46.75
2023-08-30T19:37:19.941Z,47.01
2023-08-30T19:39:49.521Z,46.94
2023-08-30T19:42:21.225Z,46.82
2023-08-30T19:44:56.124Z,46.82
2023-08-30T19:47:24.017Z,47.04
2023-08-30T19:49:52.369Z,46.51
2023-08-30T19:52:20.372Z,46.39
2023-08-30T19:54:49.673Z,46.47
2023-08-30T19:57:19.176Z,46.71
2023-08-30T19:59:47.386Z,46.56
2023-08-30T20:02:16.248Z,46.61
2023-08-30T20:04:44.291Z,46.24
2023-08-30T20:07:12.156Z,46.75
2023-08-30T20:09:40.039Z,46.94
2023-08-30T20:12:11.569Z,46.95
2023-08-30T20:14:39.631Z,46.53
2023-08-30T20:17:07.638Z,46.54
2023-08-30T20:19:35.743Z,46.59
2023-08-30T20:22:03.859Z,46.44
2023-08-30T20:24:31.914Z,46.09
2023-08-30T20:26:59.824Z,46.59
2023-08-30T20:29:29.117Z,46.16
2023-08-30T20:31:57.035Z,45.98
2023-08-30T20:34:25.265Z,46.23
2023-08-30T20:36:53.156Z,46.03
2023-08-30T20:39:22.268Z,46.14
2023-08-30T20:41:51.634Z,45.85
2023-08-30T20:44:19.824Z,46.20
2023-08-30T20:46:49.237Z,46.29
2023-08-30T20:49:17.259Z,46.02
2023-08-30T20:51:45.344Z,46.18
2023-08-30T20:54:13.288Z,45.77
2023-08-30T20:56:41.155Z,46.49
2023-08-30T20:59:09.587Z,46.63
2023-08-30T21:01:37.588Z,45.92
2023-08-30T21:04:07.600Z,46.04
2023-08-30T21:06:35.532Z,46.29
2023-08-30T21:09:04.110Z,45.98
2023-08-30T21:11:31.952Z,45.87
2023-08-30T21:14:00.605Z,45.93
2023-08-30T21:16:28.536Z,46.37
2023-08-30T21:18:56.508Z,46.13
2023-08-30T21:21:25.856Z,46.07
2023-08-30T21:23:53.748Z,46.41
2023-08-30T21:26:21.552Z,46.64
2023-08-30T21:28:51.463Z,46.52
2023-08-30T21:31:24.680Z,46.38
2023-08-30T21:33:54.453Z,46.32
2023-08-30T21:36:22.666Z,46.09
2023-08-30T21:38:51.929Z,46.13
2023-08-30T21:41:21.466Z,46.74
2023-08-30T21:43:49.643Z,46.30
2023-08-30T21:46:17.744Z,46.63
2023-08-30T21:48:45.813Z,46.43
2023-08-30T21:51:13.724Z,46.05
2023-08-30T21:53:41.562Z,46.10
2023-08-30T21:56:10.788Z,46.13
2023-08-30T21:58:38.672Z,46.05
2023-08-30T22:01:06.625Z,46.52
2023-08-30T22:03:35.099Z,46.26
2023-08-30T22:06:06.484Z,46.54
2023-08-30T22:08:34.500Z,46.28
2023-08-30T22:11:02.414Z,46.67
2023-08-30T22:13:31.781Z,46.02
2023-08-30T22:15:59.745Z,46.29
2023-08-30T22:18:27.939Z,46.27
2023-08-30T22:20:55.907Z,46.03
2023-08-30T22:23:23.999Z,45.88
2023-08-30T22:25:51.808Z,46.02
2023-08-30T22:28:20.161Z,46.38
2023-08-30T22:30:49.656Z,46.23
2023-08-30T22:33:17.779Z,45.95
2023-08-30T22:35:46.218Z,45.71
2023-08-30T22:38:14.143Z,45.95
2023-08-30T22:40:41.965Z,46.01
2023-08-30T22:43:10.639Z,46.37
2023-08-30T22:45:39.183Z,46.56
2023-08-30T22:48:10.054Z,45.97
2023-08-30T22:50:38.663Z,46.23
2023-08-30T22:53:06.760Z,46.38
2023-08-30T22:55:37.086Z,46.32
2023-08-30T22:58:05.949Z,45.95
2023-08-30T23:00:33.815Z,45.88
2023-08-30T23:03:01.739Z,45.74
2023-08-30T23:05:30.984Z,45.81
2023-08-30T23:07:59.192Z,46.31
2023-08-30T23:10:29.067Z,45.70
2023-08-30T23:12:56.930Z,45.74
2023-08-30T23:15:24.753Z,45.72
2023-08-30T23:17:53.972Z,45.83
2023-08-30T23:20:22.594Z,46.05
2023-08-30T23:22:52.077Z,46.00
2023-08-30T23:25:20.045Z,45.94
2023-08-30T23:27:47.915Z,46.30
2023-08-30T23:30:17.548Z,45.69
2023-08-30T23:32:45.961Z,46.31
2023-08-30T23:35:13.874Z,46.47
2023-08-30T23:37:41.799Z,46.19
2023-08-30T23:40:12.090Z,46.38
2023-08-30T23:42:40.361Z,46.36
2023-08-30T23:45:09.571Z,46.08
2023-08-30T23:47:38.529Z,46.47
2023-08-30T23:50:09.070Z,46.19
2023-08-30T23:52:37.037Z,46.35
2023-08-30T23:55:05.873Z,46.33
2023-08-30T23:57:35.309Z,45.84
